sensor_id;sensor_type;location;lat;lon;timestamp;P1;durP1;ratioP1;P2;durP2;ratioP2
74551;SDS011;63025;55.472;38.432;2024-03-23T00:56:05;46.92;;;20.13;;
74551;SDS011;63025;55.472;38.432;2024-03-23T00:58:31;44.53;;;19.63;;
74551;SDS011;63025;55.472;38.432;2024-03-23T01:00:57;45.08;;;20.67;;
74551;SDS011;63025;55.472;38.432;2024-03-23T01:03:23;48.97;;;19.77;;
74551;SDS011;63025;55.472;38.432;2024-03-23T01:05:48;45.88;;;19.65;;
74551;SDS011;63025;55.472;38.432;2024-03-23T01:08:14;46.60;;;20.25;;
74551;SDS011;63025;55.472;38.432;2024-03-23T01:10:40;47.60;;;21.17;;
74551;SDS011;63025;55.472;38.432;2024-03-23T01:13:06;42.97;;;20.08;;
74551;SDS011;63025;55.472;38.432;2024-03-23T01:15:32;44.42;;;19.75;;
74551;SDS011;63025;55.472;38.432;2024-03-23T01:17:58;42.70;;;19.58;;
74551;SDS011;63025;55.472;38.432;2024-03-23T01:20:23;45.83;;;20.95;;
74551;SDS011;63025;55.472;38.432;2024-03-23T01:22:49;40.55;;;19.25;;
74551;SDS011;63025;55.472;38.432;2024-03-23T01:25:15;49.92;;;20.55;;
74551;SDS011;63025;55.472;38.432;2024-03-23T01:27:41;41.97;;;19.58;;
74551;SDS011;63025;55.472;38.432;2024-03-23T01:30:07;43.40;;;19.20;;
74551;SDS011;63025;55.472;38.432;2024-03-23T01:32:33;43.38;;;19.55;;
74551;SDS011;63025;55.472;38.432;2024-03-23T01:34:58;45.22;;;20.35;;
74551;SDS011;63025;55.472;38.432;2024-03-23T01:37:24;44.17;;;20.00;;
74551;SDS011;63025;55.472;38.432;2024-03-23T01:39:50;44.08;;;19.20;;
74551;SDS011;63025;55.472;38.432;2024-03-23T01:42:16;49.92;;;20.40;;
74551;SDS011;63025;55.472;38.432;2024-03-23T01:44:42;43.67;;;17.92;;
74551;SDS011;63025;55.472;38.432;2024-03-23T01:47:07;40.50;;;18.08;;
74551;SDS011;63025;55.472;38.432;2024-03-23T01:49:34;45.38;;;19.27;;
74551;SDS011;63025;55.472;38.432;2024-03-23T01:52:01;42.95;;;18.58;;
74551;SDS011;63025;55.472;38.432;2024-03-23T01:54:27;38.80;;;18.08;;
74551;SDS011;63025;55.472;38.432;2024-03-23T01:56:55;45.90;;;19.38;;
74551;SDS011;63025;55.472;38.432;2024-03-23T01:59:21;39.85;;;18.48;;
74551;SDS011;63025;55.472;38.432;2024-03-23T02:01:47;41.55;;;18.30;;
74551;SDS011;63025;55.472;38.432;2024-03-23T02:04:13;47.70;;;19.50;;
74551;SDS011;63025;55.472;38.432;2024-03-23T02:06:39;40.08;;;19.23;;
74551;SDS011;63025;55.472;38.432;2024-03-23T02:09:05;43.42;;;18.88;;
74551;SDS011;63025;55.472;38.432;2024-03-23T02:11:31;41.40;;;18.35;;
74551;SDS011;63025;55.472;38.432;2024-03-23T02:13:57;44.38;;;18.55;;
74551;SDS011;63025;55.472;38.432;2024-03-23T02:16:23;43.05;;;19.08;;
74551;SDS011;63025;55.472;38.432;2024-03-23T02:18:49;35.92;;;17.48;;
74551;SDS011;63025;55.472;38.432;2024-03-23T02:21:15;38.58;;;17.95;;
74551;SDS011;63025;55.472;38.432;2024-03-23T02:23:41;41.25;;;18.20;;
74551;SDS011;63025;55.472;38.432;2024-03-23T02:26:07;39.50;;;18.02;;
74551;SDS011;63025;55.472;38.432;2024-03-23T02:28:32;37.13;;;18.30;;
74551;SDS011;63025;55.472;38.432;2024-03-23T02:30:58;39.78;;;17.55;;
74551;SDS011;63025;55.472;38.432;2024-03-23T02:33:26;38.40;;;17.77;;
74551;SDS011;63025;55.472;38.432;2024-03-23T02:35:55;39.40;;;17.20;;
74551;SDS011;63025;55.472;38.432;2024-03-23T02:38:21;42.35;;;18.08;;
74551;SDS011;63025;55.472;38.432;2024-03-23T02:40:47;39.17;;;16.95;;
74551;SDS011;63025;55.472;38.432;2024-03-23T02:43:13;39.90;;;16.88;;
74551;SDS011;63025;55.472;38.432;2024-03-23T02:45:39;38.03;;;17.02;;
74551;SDS011;63025;55.472;38.432;2024-03-23T02:48:04;40.58;;;17.92;;
74551;SDS011;63025;55.472;38.432;2024-03-23T02:50:30;38.58;;;16.15;;
74551;SDS011;63025;55.472;38.432;2024-03-23T02:52:56;35.33;;;16.70;;
74551;SDS011;63025;55.472;38.432;2024-03-23T02:55:22;37.05;;;17.17;;
74551;SDS011;63025;55.472;38.432;2024-03-23T02:57:48;41.22;;;18.40;;
74551;SDS011;63025;55.472;38.432;2024-03-23T03:00:14;38.38;;;18.13;;
74551;SDS011;63025;55.472;38.432;2024-03-23T03:02:40;36.50;;;16.05;;
74551;SDS011;63025;55.472;38.432;2024-03-23T03:05:06;39.67;;;17.70;;
74551;SDS011;63025;55.472;38.432;2024-03-23T03:07:32;39.20;;;17.70;;
74551;SDS011;63025;55.472;38.432;2024-03-23T03:09:58;42.38;;;18.23;;
74551;SDS011;63025;55.472;38.432;2024-03-23T03:12:24;38.97;;;16.88;;
74551;SDS011;63025;55.472;38.432;2024-03-23T03:14:50;33.10;;;16.60;;
74551;SDS011;63025;55.472;38.432;2024-03-23T03:17:15;37.35;;;17.30;;
74551;SDS011;63025;55.472;38.432;2024-03-23T03:19:41;37.53;;;17.33;;
74551;SDS011;63025;55.472;38.432;2024-03-23T03:22:07;35.83;;;16.83;;
74551;SDS011;63025;55.472;38.432;2024-03-23T03:24:34;38.58;;;17.15;;
74551;SDS011;63025;55.472;38.432;2024-03-23T03:27:00;39.70;;;17.40;;
74551;SDS011;63025;55.472;38.432;2024-03-23T03:29:26;34.80;;;15.88;;
74551;SDS011;63025;55.472;38.432;2024-03-23T03:31:51;37.85;;;17.20;;
74551;SDS011;63025;55.472;38.432;2024-03-23T03:34:17;37.97;;;16.65;;
74551;SDS011;63025;55.472;38.432;2024-03-23T03:36:43;37.88;;;17.90;;
74551;SDS011;63025;55.472;38.432;2024-03-23T03:39:09;35.33;;;16.05;;
74551;SDS011;63025;55.472;38.432;2024-03-23T03:41:35;34.97;;;16.42;;
74551;SDS011;63025;55.472;38.432;2024-03-23T03:44:01;37.40;;;16.70;;
74551;SDS011;63025;55.472;38.432;2024-03-23T03:46:28;33.95;;;16.08;;
74551;SDS011;63025;55.472;38.432;2024-03-23T03:48:54;39.28;;;16.45;;
74551;SDS011;63025;55.472;38.432;2024-03-23T03:51:20;32.78;;;15.73;;
74551;SDS011;63025;55.472;38.432;2024-03-23T03:53:46;32.45;;;16.40;;
74551;SDS011;63025;55.472;38.432;2024-03-23T03:56:12;31.52;;;14.95;;
74551;SDS011;63025;55.472;38.432;2024-03-23T03:58:38;38.15;;;16.08;;
74551;SDS011;63025;55.472;38.432;2024-03-23T04:01:05;34.22;;;15.70;;
74551;SDS011;63025;55.472;38.432;2024-03-23T04:03:31;36.22;;;16.73;;
74551;SDS011;63025;55.472;38.432;2024-03-23T04:05:57;36.25;;;15.75;;
74551;SDS011;63025;55.472;38.432;2024-03-23T04:08:23;30.35;;;15.57;;
74551;SDS011;63025;55.472;38.432;2024-03-23T04:10:49;30.02;;;14.85;;
74551;SDS011;63025;55.472;38.432;2024-03-23T04:13:15;31.08;;;15.32;;
74551;SDS011;63025;55.472;38.432;2024-03-23T04:15:41;31.73;;;15.75;;
74551;SDS011;63025;55.472;38.432;2024-03-23T04:18:08;34.55;;;15.23;;
74551;SDS011;63025;55.472;38.432;2024-03-23T04:20:34;30.80;;;14.80;;
74551;SDS011;63025;55.472;38.432;2024-03-23T04:22:59;30.80;;;15.35;;
74551;SDS011;63025;55.472;38.432;2024-03-23T04:25:25;33.03;;;14.90;;
74551;SDS011;63025;55.472;38.432;2024-03-23T04:27:51;32.65;;;15.40;;
74551;SDS011;63025;55.472;38.432;2024-03-23T04:30:17;34.28;;;15.32;;
74551;SDS011;63025;55.472;38.432;2024-03-23T04:32:44;29.10;;;15.48;;
74551;SDS011;63025;55.472;38.432;2024-03-23T04:35:10;30.45;;;14.52;;
74551;SDS011;63025;55.472;38.432;2024-03-23T04:37:39;32.20;;;15.43;;
74551;SDS011;63025;55.472;38.432;2024-03-23T04:40:08;32.03;;;15.15;;
74551;SDS011;63025;55.472;38.432;2024-03-23T04:42:34;34.00;;;16.33;;
74551;SDS011;63025;55.472;38.432;2024-03-23T04:45:00;26.98;;;14.57;;
74551;SDS011;63025;55.472;38.432;2024-03-23T04:47:29;30.35;;;14.70;;
74551;SDS011;63025;55.472;38.432;2024-03-23T04:49:55;30.90;;;15.02;;
74551;SDS011;63025;55.472;38.432;2024-03-23T04:52:21;31.45;;;14.48;;
74551;SDS011;63025;55.472;38.432;2024-03-23T04:54:46;29.67;;;14.30;;
74551;SDS011;63025;55.472;38.432;2024-03-23T04:57:12;29.73;;;14.70;;
74551;SDS011;63025;55.472;38.432;2024-03-23T04:59:46;32.65;;;15.45;;
74551;SDS011;63025;55.472;38.432;2024-03-23T05:02:13;32.15;;;15.10;;
74551;SDS011;63025;55.472;38.432;2024-03-23T05:04:41;30.60;;;14.25;;
74551;SDS011;63025;55.472;38.432;2024-03-23T05:07:07;28.92;;;15.38;;
74551;SDS011;63025;55.472;38.432;2024-03-23T05:09:32;30.92;;;15.20;;
74551;SDS011;63025;55.472;38.432;2024-03-23T05:11:59;27.95;;;15.02;;
74551;SDS011;63025;55.472;38.432;2024-03-23T05:14:28;29.25;;;14.82;;
74551;SDS011;63025;55.472;38.432;2024-03-23T05:16:54;33.80;;;16.05;;
74551;SDS011;63025;55.472;38.432;2024-03-23T05:19:21;31.08;;;14.52;;
74551;SDS011;63025;55.472;38.432;2024-03-23T05:21:47;29.00;;;14.63;;
74551;SDS011;63025;55.472;38.432;2024-03-23T05:24:13;30.38;;;15.50;;
74551;SDS011;63025;55.472;38.432;2024-03-23T05:26:39;30.98;;;15.52;;
74551;SDS011;63025;55.472;38.432;2024-03-23T05:29:05;32.20;;;14.05;;
74551;SDS011;63025;55.472;38.432;2024-03-23T05:31:32;28.70;;;14.85;;
74551;SDS011;63025;55.472;38.432;2024-03-23T05:33:58;30.08;;;14.40;;
74551;SDS011;63025;55.472;38.432;2024-03-23T05:36:24;32.42;;;15.43;;
74551;SDS011;63025;55.472;38.432;2024-03-23T05:38:50;31.88;;;15.95;;
74551;SDS011;63025;55.472;38.432;2024-03-23T05:41:16;30.23;;;16.52;;
74551;SDS011;63025;55.472;38.432;2024-03-23T05:43:42;34.38;;;16.75;;
74551;SDS011;63025;55.472;38.432;2024-03-23T05:46:07;31.80;;;16.58;;
74551;SDS011;63025;55.472;38.432;2024-03-23T05:48:34;30.10;;;15.65;;
74551;SDS011;63025;55.472;38.432;2024-03-23T05:51:00;27.35;;;15.18;;
74551;SDS011;63025;55.472;38.432;2024-03-23T05:53:26;34.58;;;16.52;;
74551;SDS011;63025;55.472;38.432;2024-03-23T05:56:00;31.27;;;15.85;;
74551;SDS011;63025;55.472;38.432;2024-03-23T05:58:29;30.83;;;15.70;;
74551;SDS011;63025;55.472;38.432;2024-03-23T06:00:59;28.80;;;15.73;;
74551;SDS011;63025;55.472;38.432;2024-03-23T06:03:28;36.28;;;17.73;;
74551;SDS011;63025;55.472;38.432;2024-03-23T06:05:54;30.60;;;16.48;;
74551;SDS011;63025;55.472;38.432;2024-03-23T06:08:21;28.25;;;15.93;;
74551;SDS011;63025;55.472;38.432;2024-03-23T06:10:47;31.65;;;17.38;;
74551;SDS011;63025;55.472;38.432;2024-03-23T06:13:13;30.83;;;16.42;;
74551;SDS011;63025;55.472;38.432;2024-03-23T06:15:39;32.17;;;16.60;;
74551;SDS011;63025;55.472;38.432;2024-03-23T06:18:05;32.58;;;16.67;;
74551;SDS011;63025;55.472;38.432;2024-03-23T06:20:33;33.67;;;16.08;;
74551;SDS011;63025;55.472;38.432;2024-03-23T06:23:00;31.10;;;17.15;;
74551;SDS011;63025;55.472;38.432;2024-03-23T06:25:27;31.40;;;16.55;;
74551;SDS011;63025;55.472;38.432;2024-03-23T06:27:52;31.60;;;16.23;;
74551;SDS011;63025;55.472;38.432;2024-03-23T06:30:18;35.78;;;17.40;;
74551;SDS011;63025;55.472;38.432;2024-03-23T06:32:44;33.25;;;17.95;;
74551;SDS011;63025;55.472;38.432;2024-03-23T06:35:10;37.13;;;18.17;;
74551;SDS011;63025;55.472;38.432;2024-03-23T06:37:36;34.47;;;18.83;;
74551;SDS011;63025;55.472;38.432;2024-03-23T06:40:02;32.08;;;17.70;;
74551;SDS011;63025;55.472;38.432;2024-03-23T06:42:30;34.33;;;18.15;;
74551;SDS011;63025;55.472;38.432;2024-03-23T06:44:55;36.03;;;18.88;;
74551;SDS011;63025;55.472;38.432;2024-03-23T06:47:21;36.55;;;19.00;;
74551;SDS011;63025;55.472;38.432;2024-03-23T06:49:47;39.35;;;19.13;;
74551;SDS011;63025;55.472;38.432;2024-03-23T06:52:13;36.72;;;19.13;;
74551;SDS011;63025;55.472;38.432;2024-03-23T06:54:39;40.13;;;19.10;;
74551;SDS011;63025;55.472;38.432;2024-03-23T06:57:05;37.10;;;18.58;;
74551;SDS011;63025;55.472;38.432;2024-03-23T06:59:30;34.03;;;18.77;;
74551;SDS011;63025;55.472;38.432;2024-03-23T07:01:56;34.25;;;18.58;;
74551;SDS011;63025;55.472;38.432;2024-03-23T07:04:22;40.35;;;19.65;;
74551;SDS011;63025;55.472;38.432;2024-03-23T07:06:48;39.75;;;19.73;;
74551;SDS011;63025;55.472;38.432;2024-03-23T07:09:14;38.88;;;20.17;;
74551;SDS011;63025;55.472;38.432;2024-03-23T07:11:39;38.30;;;18.70;;
74551;SDS011;63025;55.472;38.432;2024-03-23T07:14:05;39.75;;;20.58;;
74551;SDS011;63025;55.472;38.432;2024-03-23T07:16:31;37.58;;;20.83;;
74551;SDS011;63025;55.472;38.432;2024-03-23T07:18:57;36.10;;;19.17;;
74551;SDS011;63025;55.472;38.432;2024-03-23T07:21:24;37.15;;;20.17;;
74551;SDS011;63025;55.472;38.432;2024-03-23T07:23:49;38.50;;;19.52;;
74551;SDS011;63025;55.472;38.432;2024-03-23T07:26:15;37.33;;;19.50;;
74551;SDS011;63025;55.472;38.432;2024-03-23T07:28:42;39.80;;;19.42;;
74551;SDS011;63025;55.472;38.432;2024-03-23T07:31:11;36.33;;;18.27;;
74551;SDS011;63025;55.472;38.432;2024-03-23T07:33:41;37.58;;;19.20;;
74551;SDS011;63025;55.472;38.432;2024-03-23T07:36:08;42.95;;;20.48;;
74551;SDS011;63025;55.472;38.432;2024-03-23T07:38:34;31.98;;;19.33;;
74551;SDS011;63025;55.472;38.432;2024-03-23T07:43:29;40.72;;;22.10;;
74551;SDS011;63025;55.472;38.432;2024-03-23T07:45:55;35.95;;;20.00;;
74551;SDS011;63025;55.472;38.432;2024-03-23T07:48:21;42.60;;;21.80;;
74551;SDS011;63025;55.472;38.432;2024-03-23T07:50:57;42.28;;;21.13;;
74551;SDS011;63025;55.472;38.432;2024-03-23T07:53:30;38.33;;;20.70;;
74551;SDS011;63025;55.472;38.432;2024-03-23T07:55:57;39.70;;;20.50;;
74551;SDS011;63025;55.472;38.432;2024-03-23T07:58:34;41.25;;;20.17;;
74551;SDS011;63025;55.472;38.432;2024-03-23T08:01:03;37.92;;;20.27;;
74551;SDS011;63025;55.472;38.432;2024-03-23T08:03:50;38.38;;;19.70;;
74551;SDS011;63025;55.472;38.432;2024-03-23T08:06:16;36.13;;;18.45;;
74551;SDS011;63025;55.472;38.432;2024-03-23T08:08:46;38.05;;;19.98;;
74551;SDS011;63025;55.472;38.432;2024-03-23T08:11:13;37.42;;;20.40;;
74551;SDS011;63025;55.472;38.432;2024-03-23T08:13:39;38.22;;;19.80;;
74551;SDS011;63025;55.472;38.432;2024-03-23T08:16:07;37.42;;;19.35;;
74551;SDS011;63025;55.472;38.432;2024-03-23T08:18:39;40.78;;;20.48;;
74551;SDS011;63025;55.472;38.432;2024-03-23T08:21:06;34.50;;;18.73;;
74551;SDS011;63025;55.472;38.432;2024-03-23T08:23:33;34.25;;;18.35;;
74551;SDS011;63025;55.472;38.432;2024-03-23T08:26:04;35.05;;;18.13;;
74551;SDS011;63025;55.472;38.432;2024-03-23T08:28:31;33.80;;;18.90;;
74551;SDS011;63025;55.472;38.432;2024-03-23T08:31:00;31.08;;;18.42;;
74551;SDS011;63025;55.472;38.432;2024-03-23T08:33:28;36.60;;;17.88;;
74551;SDS011;63025;55.472;38.432;2024-03-23T08:35:54;39.08;;;19.02;;
74551;SDS011;63025;55.472;38.432;2024-03-23T08:38:25;30.98;;;17.13;;
74551;SDS011;63025;55.472;38.432;2024-03-23T08:41:07;36.30;;;19.13;;
74551;SDS011;63025;55.472;38.432;2024-03-23T08:43:38;36.55;;;18.10;;
74551;SDS011;63025;55.472;38.432;2024-03-23T08:46:15;36.00;;;19.00;;
74551;SDS011;63025;55.472;38.432;2024-03-23T08:48:42;39.67;;;20.20;;
74551;SDS011;63025;55.472;38.432;2024-03-23T08:51:10;35.72;;;18.25;;
74551;SDS011;63025;55.472;38.432;2024-03-23T08:53:36;38.67;;;19.65;;
74551;SDS011;63025;55.472;38.432;2024-03-23T08:56:03;40.42;;;20.40;;
74551;SDS011;63025;55.472;38.432;2024-03-23T08:58:30;37.33;;;19.92;;
74551;SDS011;63025;55.472;38.432;2024-03-23T09:01:02;39.83;;;19.35;;
74551;SDS011;63025;55.472;38.432;2024-03-23T09:03:29;42.63;;;20.00;;
74551;SDS011;63025;55.472;38.432;2024-03-23T09:05:56;37.45;;;18.83;;
74551;SDS011;63025;55.472;38.432;2024-03-23T09:08:23;38.53;;;20.00;;
74551;SDS011;63025;55.472;38.432;2024-03-23T09:10:49;39.15;;;20.20;;
74551;SDS011;63025;55.472;38.432;2024-03-23T09:13:15;38.38;;;18.77;;
74551;SDS011;63025;55.472;38.432;2024-03-23T09:15:51;36.15;;;19.67;;
74551;SDS011;63025;55.472;38.432;2024-03-23T09:18:21;36.08;;;19.05;;
74551;SDS011;63025;55.472;38.432;2024-03-23T09:20:47;35.95;;;17.92;;
74551;SDS011;63025;55.472;38.432;2024-03-23T09:23:13;36.38;;;18.63;;
74551;SDS011;63025;55.472;38.432;2024-03-23T09:25:39;36.13;;;19.23;;
74551;SDS011;63025;55.472;38.432;2024-03-23T09:28:06;36.58;;;18.55;;
74551;SDS011;63025;55.472;38.432;2024-03-23T09:30:34;34.50;;;18.67;;
74551;SDS011;63025;55.472;38.432;2024-03-23T09:33:02;32.55;;;18.25;;
74551;SDS011;63025;55.472;38.432;2024-03-23T09:35:28;36.00;;;19.08;;
74551;SDS011;63025;55.472;38.432;2024-03-23T09:37:54;34.13;;;17.70;;
74551;SDS011;63025;55.472;38.432;2024-03-23T09:40:20;34.00;;;17.58;;
74551;SDS011;63025;55.472;38.432;2024-03-23T09:42:50;35.72;;;17.48;;
74551;SDS011;63025;55.472;38.432;2024-03-23T09:45:23;31.00;;;16.23;;
74551;SDS011;63025;55.472;38.432;2024-03-23T09:47:52;29.77;;;16.42;;
74551;SDS011;63025;55.472;38.432;2024-03-23T09:50:18;28.48;;;15.38;;
74551;SDS011;63025;55.472;38.432;2024-03-23T09:52:47;27.27;;;14.95;;
74551;SDS011;63025;55.472;38.432;2024-03-23T09:55:14;27.33;;;14.93;;
74551;SDS011;63025;55.472;38.432;2024-03-23T09:57:41;23.45;;;13.63;;
74551;SDS011;63025;55.472;38.432;2024-03-23T10:00:07;24.40;;;14.35;;
74551;SDS011;63025;55.472;38.432;2024-03-23T10:02:34;26.08;;;14.35;;
74551;SDS011;63025;55.472;38.432;2024-03-23T10:05:01;25.77;;;14.15;;
74551;SDS011;63025;55.472;38.432;2024-03-23T10:07:29;22.33;;;13.48;;
74551;SDS011;63025;55.472;38.432;2024-03-23T10:09:55;22.45;;;13.15;;
74551;SDS011;63025;55.472;38.432;2024-03-23T10:12:22;34.55;;;17.73;;
74551;SDS011;63025;55.472;38.432;2024-03-23T10:14:49;21.75;;;12.93;;
74551;SDS011;63025;55.472;38.432;2024-03-23T10:17:19;23.13;;;12.40;;
74551;SDS011;63025;55.472;38.432;2024-03-23T10:19:50;20.80;;;12.57;;
74551;SDS011;63025;55.472;38.432;2024-03-23T10:22:18;20.90;;;12.63;;
74551;SDS011;63025;55.472;38.432;2024-03-23T10:24:45;21.85;;;12.93;;
74551;SDS011;63025;55.472;38.432;2024-03-23T10:27:15;21.63;;;12.52;;
74551;SDS011;63025;55.472;38.432;2024-03-23T10:29:46;22.05;;;13.27;;
74551;SDS011;63025;55.472;38.432;2024-03-23T10:32:13;22.05;;;13.20;;
74551;SDS011;63025;55.472;38.432;2024-03-23T10:34:43;20.90;;;12.35;;
74551;SDS011;63025;55.472;38.432;2024-03-23T10:37:09;20.73;;;12.48;;
74551;SDS011;63025;55.472;38.432;2024-03-23T10:39:36;21.85;;;12.18;;
74551;SDS011;63025;55.472;38.432;2024-03-23T10:42:07;22.98;;;13.00;;
74551;SDS011;63025;55.472;38.432;2024-03-23T10:44:34;21.23;;;12.68;;
74551;SDS011;63025;55.472;38.432;2024-03-23T10:47:04;21.98;;;12.90;;
74551;SDS011;63025;55.472;38.432;2024-03-23T10:49:34;23.45;;;12.43;;
74551;SDS011;63025;55.472;38.432;2024-03-23T10:52:02;21.02;;;12.00;;
74551;SDS011;63025;55.472;38.432;2024-03-23T10:54:30;19.98;;;11.43;;
74551;SDS011;63025;55.472;38.432;2024-03-23T10:57:06;20.60;;;11.93;;
74551;SDS011;63025;55.472;38.432;2024-03-23T10:59:39;20.35;;;12.43;;
74551;SDS011;63025;55.472;38.432;2024-03-23T11:02:05;21.23;;;12.10;;
74551;SDS011;63025;55.472;38.432;2024-03-23T11:09:52;20.92;;;11.90;;
74551;SDS011;63025;55.472;38.432;2024-03-23T11:14:51;25.80;;;13.45;;
74551;SDS011;63025;55.472;38.432;2024-03-23T11:17:25;20.00;;;12.70;;
74551;SDS011;63025;55.472;38.432;2024-03-23T11:19:55;20.77;;;11.50;;
74551;SDS011;63025;55.472;38.432;2024-03-23T11:25:24;26.15;;;13.77;;
74551;SDS011;63025;55.472;38.432;2024-03-23T11:27:51;18.35;;;11.18;;
74551;SDS011;63025;55.472;38.432;2024-03-23T11:30:24;23.23;;;13.73;;
74551;SDS011;63025;55.472;38.432;2024-03-23T11:32:52;20.45;;;11.23;;
74551;SDS011;63025;55.472;38.432;2024-03-23T11:38:11;19.00;;;9.93;;
74551;SDS011;63025;55.472;38.432;2024-03-23T11:40:41;18.30;;;10.85;;
74551;SDS011;63025;55.472;38.432;2024-03-23T11:43:13;18.40;;;11.45;;
74551;SDS011;63025;55.472;38.432;2024-03-23T11:45:49;19.08;;;11.68;;
74551;SDS011;63025;55.472;38.432;2024-03-23T11:48:23;24.70;;;13.05;;
74551;SDS011;63025;55.472;38.432;2024-03-23T11:50:50;22.23;;;12.85;;
74551;SDS011;63025;55.472;38.432;2024-03-23T11:53:21;25.23;;;13.48;;
74551;SDS011;63025;55.472;38.432;2024-03-23T11:55:57;21.65;;;12.38;;
74551;SDS011;63025;55.472;38.432;2024-03-23T11:58:25;20.70;;;12.60;;
74551;SDS011;63025;55.472;38.432;2024-03-23T12:01:02;24.33;;;13.75;;
74551;SDS011;63025;55.472;38.432;2024-03-23T12:03:29;25.70;;;13.68;;
74551;SDS011;63025;55.472;38.432;2024-03-23T12:05:58;30.20;;;15.20;;
74551;SDS011;63025;55.472;38.432;2024-03-23T12:08:32;25.65;;;15.07;;
74551;SDS011;63025;55.472;38.432;2024-03-23T12:11:12;27.25;;;13.93;;
74551;SDS011;63025;55.472;38.432;2024-03-23T12:13:44;32.30;;;15.25;;
74551;SDS011;63025;55.472;38.432;2024-03-23T12:16:16;32.72;;;17.67;;
74551;SDS011;63025;55.472;38.432;2024-03-23T12:18:46;30.90;;;16.65;;
74551;SDS011;63025;55.472;38.432;2024-03-23T12:21:13;30.25;;;15.70;;
74551;SDS011;63025;55.472;38.432;2024-03-23T12:23:39;31.30;;;17.42;;
74551;SDS011;63025;55.472;38.432;2024-03-23T12:26:06;31.77;;;17.00;;
74551;SDS011;63025;55.472;38.432;2024-03-23T12:28:33;30.08;;;15.80;;
74551;SDS011;63025;55.472;38.432;2024-03-23T12:30:59;25.05;;;14.82;;
74551;SDS011;63025;55.472;38.432;2024-03-23T12:33:25;29.98;;;15.98;;
74551;SDS011;63025;55.472;38.432;2024-03-23T12:35:51;28.10;;;15.65;;
74551;SDS011;63025;55.472;38.432;2024-03-23T12:38:17;26.27;;;15.40;;
74551;SDS011;63025;55.472;38.432;2024-03-23T12:40:46;28.00;;;15.85;;
74551;SDS011;63025;55.472;38.432;2024-03-23T12:43:16;31.30;;;15.23;;
74551;SDS011;63025;55.472;38.432;2024-03-23T12:45:46;28.35;;;14.60;;
74551;SDS011;63025;55.472;38.432;2024-03-23T12:48:12;27.60;;;15.52;;
74551;SDS011;63025;55.472;38.432;2024-03-23T12:50:38;26.85;;;15.43;;
74551;SDS011;63025;55.472;38.432;2024-03-23T12:53:04;27.10;;;15.07;;
74551;SDS011;63025;55.472;38.432;2024-03-23T12:55:30;27.77;;;16.45;;
74551;SDS011;63025;55.472;38.432;2024-03-23T12:57:56;31.08;;;15.65;;
74551;SDS011;63025;55.472;38.432;2024-03-23T13:00:22;29.15;;;16.52;;
74551;SDS011;63025;55.472;38.432;2024-03-23T13:02:48;32.25;;;16.73;;
74551;SDS011;63025;55.472;38.432;2024-03-23T13:05:29;31.40;;;16.90;;
74551;SDS011;63025;55.472;38.432;2024-03-23T13:07:55;31.63;;;17.75;;
74551;SDS011;63025;55.472;38.432;2024-03-23T13:10:22;31.88;;;16.67;;
74551;SDS011;63025;55.472;38.432;2024-03-23T13:12:47;34.67;;;17.88;;
74551;SDS011;63025;55.472;38.432;2024-03-23T13:15:13;33.67;;;17.40;;
74551;SDS011;63025;55.472;38.432;2024-03-23T13:17:42;32.10;;;19.15;;
74551;SDS011;63025;55.472;38.432;2024-03-23T13:20:08;33.33;;;18.73;;
74551;SDS011;63025;55.472;38.432;2024-03-23T13:22:38;36.88;;;19.33;;
74551;SDS011;63025;55.472;38.432;2024-03-23T13:25:04;38.22;;;18.95;;
74551;SDS011;63025;55.472;38.432;2024-03-23T13:27:31;38.53;;;17.83;;
74551;SDS011;63025;55.472;38.432;2024-03-23T13:29:56;34.58;;;18.23;;
74551;SDS011;63025;55.472;38.432;2024-03-23T13:32:23;33.47;;;18.02;;
74551;SDS011;63025;55.472;38.432;2024-03-23T13:34:49;33.28;;;17.52;;
74551;SDS011;63025;55.472;38.432;2024-03-23T13:37:16;37.15;;;18.75;;
74551;SDS011;63025;55.472;38.432;2024-03-23T13:39:41;35.30;;;18.80;;
74551;SDS011;63025;55.472;38.432;2024-03-23T13:42:07;36.60;;;19.75;;
74551;SDS011;63025;55.472;38.432;2024-03-23T13:44:34;43.63;;;21.35;;
74551;SDS011;63025;55.472;38.432;2024-03-23T13:47:00;41.67;;;21.50;;
74551;SDS011;63025;55.472;38.432;2024-03-23T13:49:27;41.10;;;20.63;;
74551;SDS011;63025;55.472;38.432;2024-03-23T13:51:57;42.40;;;21.77;;
74551;SDS011;63025;55.472;38.432;2024-03-23T13:54:24;39.50;;;20.02;;
74551;SDS011;63025;55.472;38.432;2024-03-23T13:56:51;41.58;;;19.88;;
74551;SDS011;63025;55.472;38.432;2024-03-23T13:59:18;37.92;;;19.77;;
74551;SDS011;63025;55.472;38.432;2024-03-23T14:01:44;38.22;;;20.02;;
74551;SDS011;63025;55.472;38.432;2024-03-23T14:04:13;40.30;;;19.45;;
74551;SDS011;63025;55.472;38.432;2024-03-23T14:06:42;35.30;;;18.50;;
74551;SDS011;63025;55.472;38.432;2024-03-23T14:09:14;35.88;;;18.52;;
74551;SDS011;63025;55.472;38.432;2024-03-23T14:11:46;37.88;;;19.17;;
74551;SDS011;63025;55.472;38.432;2024-03-23T14:14:12;38.20;;;19.60;;
74551;SDS011;63025;55.472;38.432;2024-03-23T14:16:38;35.58;;;18.40;;
74551;SDS011;63025;55.472;38.432;2024-03-23T14:19:03;36.55;;;18.70;;
74551;SDS011;63025;55.472;38.432;2024-03-23T14:21:31;38.67;;;19.17;;
74551;SDS011;63025;55.472;38.432;2024-03-23T14:23:57;37.00;;;19.02;;
74551;SDS011;63025;55.472;38.432;2024-03-23T14:26:23;38.90;;;18.20;;
74551;SDS011;63025;55.472;38.432;2024-03-23T14:28:49;35.90;;;18.35;;
74551;SDS011;63025;55.472;38.432;2024-03-23T14:31:15;36.70;;;19.60;;
74551;SDS011;63025;55.472;38.432;2024-03-23T14:33:42;35.95;;;19.10;;
74551;SDS011;63025;55.472;38.432;2024-03-23T14:36:15;35.33;;;18.85;;
74551;SDS011;63025;55.472;38.432;2024-03-23T14:38:41;38.55;;;18.45;;
74551;SDS011;63025;55.472;38.432;2024-03-23T14:41:17;34.17;;;17.77;;
74551;SDS011;63025;55.472;38.432;2024-03-23T14:43:43;34.17;;;17.60;;
74551;SDS011;63025;55.472;38.432;2024-03-23T14:46:10;36.67;;;17.90;;
74551;SDS011;63025;55.472;38.432;2024-03-23T14:48:40;35.17;;;17.23;;
74551;SDS011;63025;55.472;38.432;2024-03-23T14:51:08;30.63;;;17.10;;
74551;SDS011;63025;55.472;38.432;2024-03-23T14:53:35;32.38;;;17.20;;
74551;SDS011;63025;55.472;38.432;2024-03-23T14:56:06;34.22;;;18.25;;
74551;SDS011;63025;55.472;38.432;2024-03-23T14:58:33;38.33;;;18.00;;
74551;SDS011;63025;55.472;38.432;2024-03-23T15:01:02;33.28;;;17.15;;
74551;SDS011;63025;55.472;38.432;2024-03-23T15:03:29;33.67;;;18.30;;
74551;SDS011;63025;55.472;38.432;2024-03-23T15:05:55;34.53;;;18.85;;
74551;SDS011;63025;55.472;38.432;2024-03-23T15:08:22;36.15;;;18.20;;
74551;SDS011;63025;55.472;38.432;2024-03-23T15:10:48;35.58;;;18.15;;
74551;SDS011;63025;55.472;38.432;2024-03-23T15:13:15;32.75;;;17.33;;
74551;SDS011;63025;55.472;38.432;2024-03-23T15:15:41;33.70;;;17.80;;
74551;SDS011;63025;55.472;38.432;2024-03-23T15:18:14;32.27;;;17.23;;
74551;SDS011;63025;55.472;38.432;2024-03-23T15:20:54;32.08;;;17.15;;